Decoded Metar for KLUM (MENOMONIE MUNI in WI, USA) (IATA:LUM) | Meteo·Mobile Aviation Weather
aviador You're here:

KLUM Decoded Metar

MENOMONIE MUNI in WI, USA
Report Time2018-10-22 09:55:00
UTC Time2018-10-22 10:12:56
Flight Rules vfr VFR
WindCalm
Visibility9999 m
Phenomena:N/A
Clouds:N/A
Expected CloudBase > 400 ft AGL from Temp-Dew spread
CeilingNone
Temp-4°C (ISA -17)
Dew Point-5°C (93% RH)
AAT-6.6°C
QNH1016 hPa
Density Alt-1,263 ft
Elevation896 ft
Report Wrong Elevation
Raw Report
KLUM 220955Z AUTO 00000KT 10SM CLR M04/M05 A3001 RMK AO2
T10391050=

Extra information for KLUM:More info

Metar Taf Metar & Taf Last 4 Metars F.Rules Stats Wind Profile Meteogram Temp Stats Airport Information Weather charts Add Link Nearby VenuesMetar ALERT Operation Metar Decoded Social comments

AIRNAV info for KLUM